Terminal Aerodrome Forecast
Issued by NWS

Home | Current Version | Previous Version | Text Only | Print | Product List | Glossary On
Versions: 1 2 3 4 5 6 7 8 9 10 11 12 13 14 15 16 17 18 19 20 21 22 23 24 25 26 27 28 29 30 31 32 33 34 35 36 37 38 39 40 41 42 43
000
FTUS45 KBOU 011121
TAFAPA
TAF
KAPA 011121Z 0112/0212 04007KT 3SM -SN SCT008 OVC020
      TEMPO 0112/0113 1 1/2SM -SN BR BKN008 OVC012
     FM011400 05007KT P6SM VCSH SCT012 BKN022 BKN040
     FM011600 06007KT P6SM SCT020 BKN040
     FM011900 07008KT P6SM SCT040 BKN080
     FM020100 14007KT P6SM FEW060 SCT120 BKN200
     FM020600 18009KT P6SM SCT120 BKN200=

USA.gov is the U.S. government's official web portal to all federal, state and local government web resources and services.